Time;durP1;ratioP1;P1;durP2;ratioP2;P2;SDS_P1;SDS_P2;PMS_P1;PMS_P2;Temp;Humidity;BMP_temperature;BMP_pressure;BME280_temperature;BME280_humidity;BME280_pressure;Samples;Min_cycle;Max_cycle;Signal;HPM_P1;HPM_P2
2021/05/15 00:00:32;;;;;;;17.65;8.98;;;8.80;99.90;;;;;;6211254;23;20108;-91
2021/05/15 00:02:58;;;;;;;23.05;8.75;;;8.70;99.90;;;;;;6208359;23;20388;-91
2021/05/15 00:05:25;;;;;;;13.05;8.07;;;8.70;99.90;;;;;;6210889;23;20016;-91
2021/05/15 00:07:51;;;;;;;18.65;9.30;;;8.70;99.90;;;;;;6210046;23;20027;-89
2021/05/15 00:10:18;;;;;;;16.08;8.80;;;8.70;99.90;;;;;;6211383;23;20035;-90
2021/05/15 00:12:46;;;;;;;11.43;6.70;;;8.70;99.90;;;;;;6210609;23;20020;-91
2021/05/15 00:15:13;;;;;;;15.88;8.95;;;8.70;99.90;;;;;;6185674;23;20021;-89
2021/05/15 00:17:41;;;;;;;20.38;7.55;;;8.60;99.90;;;;;;6185580;23;20074;-89
2021/05/15 00:20:12;;;;;;;15.05;7.90;;;8.60;99.90;;;;;;6211114;23;20016;-89
2021/05/15 00:22:38;;;;;;;12.43;8.38;;;8.60;99.90;;;;;;6185557;23;20075;-90
2021/05/15 00:25:06;;;;;;;17.48;9.73;;;8.60;99.90;;;;;;6209796;23;20048;-89
2021/05/15 00:27:32;;;;;;;13.30;8.40;;;8.70;99.90;;;;;;6210802;23;20454;-90
2021/05/15 00:29:58;;;;;;;10.65;8.45;;;8.70;99.90;;;;;;6209418;23;20027;-90
2021/05/15 00:32:24;;;;;;;12.68;8.93;;;8.70;99.90;;;;;;6210103;23;20481;-89
2021/05/15 00:34:50;;;;;;;18.58;9.23;;;8.70;99.90;;;;;;6209617;23;20095;-90
2021/05/15 00:37:16;;;;;;;14.93;8.38;;;8.70;99.90;;;;;;6160587;23;20020;-90
2021/05/15 00:39:42;;;;;;;10.80;7.60;;;8.60;99.90;;;;;;6212496;23;20023;-90
2021/05/15 00:42:08;;;;;;;11.07;8.55;;;8.70;99.90;;;;;;6184631;23;20075;-91
2021/05/15 00:44:45;;;;;;;13.20;8.18;;;8.70;99.90;;;;;;6210409;23;20020;-90
2021/05/15 00:47:13;;;;;;;10.88;8.05;;;8.70;99.90;;;;;;6208839;23;20051;-90
2021/05/15 00:49:40;;;;;;;17.42;8.18;;;8.70;99.90;;;;;;6185163;23;20016;-90
2021/05/15 00:52:06;;;;;;;13.70;8.30;;;8.70;99.90;;;;;;6210749;23;20036;-91
2021/05/15 00:54:35;;;;;;;16.73;8.20;;;8.70;99.90;;;;;;6211801;23;20502;-91
2021/05/15 00:57:02;;;;;;;9.60;7.50;;;8.70;99.90;;;;;;6184164;23;20471;-88
2021/05/15 00:59:29;;;;;;;17.77;7.95;;;8.70;99.90;;;;;;6209954;23;20036;-88
2021/05/15 01:01:55;;;;;;;12.55;8.50;;;8.70;99.90;;;;;;6209150;23;20024;-88
2021/05/15 01:04:21;;;;;;;13.65;7.60;;;8.70;99.90;;;;;;6185256;23;20030;-88
2021/05/15 01:06:47;;;;;;;11.70;7.57;;;8.70;99.90;;;;;;6211385;23;20398;-88
2021/05/15 01:09:13;;;;;;;10.90;7.15;;;8.70;99.90;;;;;;6208726;23;20021;-88
2021/05/15 01:11:39;;;;;;;13.68;8.15;;;8.70;99.90;;;;;;6210533;23;20083;-88
2021/05/15 01:14:05;;;;;;;14.00;7.90;;;8.70;99.90;;;;;;6208783;23;20067;-88
2021/05/15 01:16:34;;;;;;;16.25;8.13;;;8.70;99.90;;;;;;6185430;23;20402;-88
2021/05/15 01:19:01;;;;;;;;;;;8.70;99.90;;;;;;6209714;23;20087;-88
2021/05/15 01:21:27;;;;;;;19.85;9.32;;;8.60;99.90;;;;;;6210081;23;20000;-88
2021/05/15 01:23:53;;;;;;;12.82;9.27;;;8.60;99.90;;;;;;6209748;23;20053;-90
2021/05/15 01:26:31;;;;;;;13.98;8.55;;;8.60;99.90;;;;;;6210682;23;20453;-91
2021/05/15 01:29:07;;;;;;;13.27;8.30;;;8.60;99.90;;;;;;6210015;23;20455;-93
2021/05/15 01:31:36;;;;;;;20.60;9.02;;;8.50;99.90;;;;;;6185518;23;20020;-91
2021/05/15 01:34:03;;;;;;;12.32;8.90;;;8.60;99.90;;;;;;6184191;23;20027;-91
2021/05/15 01:36:32;;;;;;;18.05;9.00;;;8.50;99.90;;;;;;6185101;23;20020;-89
2021/05/15 01:38:58;;;;;;;18.35;9.93;;;8.50;99.90;;;;;;6184642;23;20017;-89
2021/05/15 01:41:24;;;;;;;22.67;9.40;;;8.50;99.90;;;;;;6159696;23;20031;-89
2021/05/15 01:43:49;;;;;;;17.13;9.60;;;8.50;99.90;;;;;;6209732;23;20039;-90
2021/05/15 01:46:15;;;;;;;11.45;8.15;;;8.50;99.90;;;;;;6208878;23;20044;-90
2021/05/15 01:48:42;;;;;;;13.15;8.65;;;8.50;99.90;;;;;;6184537;23;20031;-89
2021/05/15 01:51:11;;;;;;;11.43;8.75;;;8.50;99.90;;;;;;6209116;23;20021;-89
2021/05/15 01:53:47;;;;;;;19.67;9.52;;;8.50;99.90;;;;;;6211032;23;20016;-89
2021/05/15 01:56:14;;;;;;;15.20;9.13;;;8.40;99.90;;;;;;6220320;23;20171;-90
2021/05/15 01:58:41;;;;;;;10.32;7.85;;;8.40;99.90;;;;;;6184530;23;20021;-89
2021/05/15 02:01:08;;;;;;;16.35;8.57;;;8.40;99.90;;;;;;6183507;23;20020;-90
2021/05/15 02:03:35;;;;;;;17.02;9.35;;;8.30;99.90;;;;;;6209564;23;20098;-89
2021/05/15 02:06:01;;;;;;;16.42;9.55;;;8.30;99.90;;;;;;6209151;23;20019;-89
2021/05/15 02:08:27;;;;;;;15.60;9.23;;;8.30;99.90;;;;;;6184628;23;20025;-89
2021/05/15 02:10:56;;;;;;;15.57;9.75;;;8.30;99.90;;;;;;6211466;23;20016;-89
2021/05/15 02:13:25;;;;;;;13.80;9.70;;;8.30;99.90;;;;;;6208866;23;20012;-89
2021/05/15 02:15:52;;;;;;;15.18;10.82;;;8.20;99.90;;;;;;6209591;23;20090;-88
2021/05/15 02:18:18;;;;;;;12.75;8.73;;;8.20;99.90;;;;;;6183381;23;20841;-89
2021/05/15 02:20:45;;;;;;;15.30;9.30;;;8.10;99.90;;;;;;6211114;23;20024;-89
2021/05/15 02:23:13;;;;;;;11.75;7.80;;;8.10;99.90;;;;;;6158423;23;20025;-87
2021/05/15 02:25:42;;;;;;;13.60;8.57;;;8.00;99.90;;;;;;6209517;23;20509;-88
2021/05/15 02:28:09;;;;;;;11.07;8.10;;;8.00;99.90;;;;;;6210116;23;20017;-89
2021/05/15 02:30:35;;;;;;;10.65;8.38;;;8.00;99.90;;;;;;6209397;23;20024;-88
2021/05/15 02:33:01;;;;;;;15.52;8.52;;;7.90;99.90;;;;;;6183622;23;20047;-90
2021/05/15 02:35:27;;;;;;;13.05;9.40;;;8.00;99.90;;;;;;6209006;23;20025;-89
2021/05/15 02:37:54;;;;;;;15.93;9.68;;;7.90;99.90;;;;;;6209488;23;20028;-89
2021/05/15 02:40:21;;;;;;;16.70;9.50;;;7.90;99.90;;;;;;6208377;23;20016;-89
2021/05/15 02:42:50;;;;;;;15.55;10.20;;;7.90;99.90;;;;;;6209063;23;20012;-89
2021/05/15 02:45:19;;;;;;;14.48;7.90;;;8.00;99.90;;;;;;6183814;23;20505;-89
2021/05/15 02:47:45;;;;;;;13.48;9.30;;;7.90;99.90;;;;;;6184641;23;20024;-89
2021/05/15 02:50:13;;;;;;;15.10;10.30;;;7.90;99.90;;;;;;6209647;23;20104;-88
2021/05/15 02:52:39;;;;;;;13.30;9.77;;;7.90;99.90;;;;;;6208831;23;20023;-89
2021/05/15 02:55:08;;;;;;;17.38;10.02;;;7.90;99.90;;;;;;6208620;23;20019;-89
2021/05/15 02:57:35;;;;;;;17.42;9.88;;;7.90;99.90;;;;;;6209411;23;20021;-89
2021/05/15 03:00:04;;;;;;;18.30;10.48;;;7.90;99.90;;;;;;6183791;23;20099;-89
2021/05/15 03:02:29;;;;;;;13.70;8.30;;;7.90;99.90;;;;;;6209228;23;20092;-90
2021/05/15 03:04:55;;;;;;;13.63;7.97;;;7.90;99.90;;;;;;6184357;23;20040;-88
2021/05/15 03:07:21;;;;;;;10.00;7.35;;;7.90;99.90;;;;;;6208643;23;20013;-88
2021/05/15 03:09:47;;;;;;;12.60;9.00;;;7.80;99.90;;;;;;6209432;23;20513;-88
2021/05/15 03:12:13;;;;;;;20.75;10.88;;;7.80;99.90;;;;;;6207846;23;20051;-88
2021/05/15 03:14:39;;;;;;;23.40;13.20;;;7.80;99.90;;;;;;6209429;23;20075;-88
2021/05/15 03:17:05;;;;;;;13.88;9.32;;;7.80;99.90;;;;;;6209469;23;20053;-89
2021/05/15 03:19:31;;;;;;;17.05;10.60;;;7.90;99.90;;;;;;6184438;23;20020;-89
2021/05/15 03:21:58;;;;;;;15.93;10.15;;;7.90;99.90;;;;;;6159853;23;20376;-90
2021/05/15 03:24:23;;;;;;;15.98;10.55;;;7.90;99.90;;;;;;6183386;23;20044;-90
2021/05/15 03:26:49;;;;;;;16.35;9.43;;;7.90;99.90;;;;;;6209842;23;20374;-91
2021/05/15 03:29:15;;;;;;;18.77;9.25;;;8.00;99.90;;;;;;6208377;23;20066;-90
2021/05/15 03:31:44;;;;;;;17.55;10.50;;;7.90;99.90;;;;;;6208879;23;20009;-91
2021/05/15 03:34:10;;;;;;;22.83;10.43;;;8.00;99.90;;;;;;6208416;23;20104;-91
2021/05/15 03:36:36;;;;;;;13.95;9.45;;;8.00;99.90;;;;;;6210390;23;20043;-91
2021/05/15 03:39:07;;;;;;;24.95;12.63;;;8.00;99.90;;;;;;6210422;23;20312;-90
2021/05/15 03:41:33;;;;;;;19.42;11.05;;;8.00;99.90;;;;;;6211311;23;20347;-91
2021/05/15 03:43:59;;;;;;;16.50;10.80;;;8.00;99.90;;;;;;6186501;23;20099;-92
2021/05/15 03:46:25;;;;;;;18.15;9.73;;;7.90;99.90;;;;;;6185054;23;20815;-88
2021/05/15 03:48:51;;;;;;;19.00;9.32;;;7.90;99.90;;;;;;6212044;23;20021;-88
2021/05/15 03:51:17;;;;;;;19.63;11.00;;;7.90;99.90;;;;;;6210092;23;20012;-88
2021/05/15 03:53:42;;;;;;;17.95;10.27;;;7.80;99.90;;;;;;6186042;23;20040;-88
2021/05/15 03:56:08;;;;;;;14.00;11.05;;;7.80;99.90;;;;;;6160004;23;20024;-89
2021/05/15 03:58:34;;;;;;;16.48;11.40;;;7.70;99.90;;;;;;6210661;23;20216;-88
2021/05/15 04:01:00;;;;;;;16.60;11.48;;;7.70;99.90;;;;;;6160820;23;20017;-88
2021/05/15 04:03:26;;;;;;;21.77;11.30;;;7.60;99.90;;;;;;6210057;23;20089;-89
2021/05/15 04:05:52;;;;;;;23.02;11.60;;;7.60;99.90;;;;;;6185837;23;20021;-89
2021/05/15 04:08:18;;;;;;;19.17;11.70;;;7.60;99.90;;;;;;6184954;23;20093;-89
2021/05/15 04:10:44;;;;;;;21.98;13.40;;;7.50;99.90;;;;;;6185605;23;20100;-90
2021/05/15 04:18:28;;;;;;;19.98;12.80;;;7.40;99.90;;;;;;6211156;23;20811;-88
2021/05/15 04:20:54;;;;;;;17.67;12.25;;;7.40;99.90;;;;;;6210438;23;20023;-89
2021/05/15 04:23:22;;;;;;;26.58;13.25;;;7.40;99.90;;;;;;6184809;23;20447;-89
2021/05/15 04:25:48;;;;;;;16.92;12.52;;;7.40;99.90;;;;;;6209410;23;20031;-90
2021/05/15 04:28:14;;;;;;;20.23;13.18;;;7.40;99.90;;;;;;6209794;23;20075;-89
2021/05/15 04:30:40;;;;;;;20.20;13.20;;;7.40;99.90;;;;;;6210831;23;20040;-89
2021/05/15 04:33:06;;;;;;;19.75;11.52;;;7.40;99.90;;;;;;6210585;23;20387;-89
2021/05/15 04:35:34;;;;;;;22.85;12.60;;;7.40;99.90;;;;;;6184504;23;20027;-89
2021/05/15 04:38:05;;;;;;;16.73;10.95;;;7.40;99.90;;;;;;6161816;23;20020;-88
2021/05/15 04:40:31;;;;;;;19.63;11.32;;;7.50;99.90;;;;;;6209461;23;20023;-89
2021/05/15 04:42:57;;;;;;;23.75;12.82;;;7.50;99.90;;;;;;6160823;23;20039;-89
2021/05/15 04:45:31;;;;;;;19.95;12.25;;;7.70;99.90;;;;;;6209255;23;20028;-88
2021/05/15 04:47:58;;;;;;;19.45;12.70;;;7.70;99.90;;;;;;6214848;23;20026;-89
2021/05/15 04:50:24;;;;;;;22.08;12.52;;;7.80;99.90;;;;;;6209312;23;20350;-89
2021/05/15 04:52:51;;;;;;;22.80;13.20;;;7.80;99.90;;;;;;6210352;23;20016;-89
2021/05/15 04:55:17;;;;;;;20.60;12.27;;;7.90;99.90;;;;;;6208760;23;20062;-89
2021/05/15 04:57:44;;;;;;;19.85;13.43;;;7.90;99.90;;;;;;6210175;23;20095;-90
2021/05/15 05:00:10;;;;;;;21.02;11.82;;;8.00;99.90;;;;;;6209702;23;20017;-91
2021/05/15 05:02:39;;;;;;;25.45;15.18;;;8.10;99.90;;;;;;6209537;23;20025;-89
2021/05/15 05:05:08;;;;;;;20.50;13.88;;;8.10;99.90;;;;;;6219693;23;20044;-89
2021/05/15 05:07:34;;;;;;;18.95;12.90;;;8.20;99.90;;;;;;6208992;23;20024;-90
2021/05/15 05:10:00;;;;;;;19.33;12.60;;;8.20;99.90;;;;;;6209945;23;20023;-90
2021/05/15 05:12:26;;;;;;;20.60;12.45;;;8.10;99.90;;;;;;6210609;23;20036;-88
2021/05/15 05:14:52;;;;;;;21.83;12.75;;;8.20;99.90;;;;;;6184861;23;20096;-88
2021/05/15 05:17:18;;;;;;;25.05;13.32;;;8.20;99.90;;;;;;6208866;23;20017;-89
2021/05/15 05:19:44;;;;;;;20.75;13.15;;;8.30;99.90;;;;;;6210095;23;20024;-88
2021/05/15 05:22:10;;;;;;;20.90;12.02;;;8.40;99.90;;;;;;6211275;23;20027;-88
2021/05/15 05:24:36;;;;;;;19.40;12.50;;;8.50;99.90;;;;;;6209416;23;20016;-89
2021/05/15 05:27:02;;;;;;;19.83;11.63;;;8.70;99.90;;;;;;6184672;23;20024;-88
2021/05/15 05:29:28;;;;;;;17.35;11.63;;;8.80;99.90;;;;;;6208508;23;20063;-90
2021/05/15 05:31:55;;;;;;;23.13;13.00;;;8.90;99.90;;;;;;6210129;23;20095;-90
2021/05/15 05:34:21;;;;;;;21.63;11.75;;;8.90;99.90;;;;;;6183394;23;20013;-89
2021/05/15 05:36:48;;;;;;;17.05;11.02;;;9.00;99.90;;;;;;6209615;23;20765;-88
2021/05/15 05:39:19;;;;;;;19.73;12.20;;;9.10;99.90;;;;;;6209024;23;20027;-90
2021/05/15 05:41:47;;;;;;;18.45;11.60;;;9.10;99.90;;;;;;6209506;23;20016;-89
2021/05/15 05:44:14;;;;;;;15.85;11.30;;;9.20;99.90;;;;;;6208896;23;20016;-89
2021/05/15 05:46:40;;;;;;;14.80;11.05;;;9.20;99.90;;;;;;6209192;23;20040;-90
2021/05/15 05:49:06;;;;;;;18.42;11.88;;;9.30;99.90;;;;;;6211592;23;20016;-90
2021/05/15 05:51:33;;;;;;;14.73;10.93;;;9.30;99.90;;;;;;6208604;23;20020;-90
2021/05/15 05:54:00;;;;;;;12.80;10.98;;;9.40;99.90;;;;;;6209712;23;20020;-90
2021/05/15 05:56:26;;;;;;;19.35;11.20;;;9.50;99.90;;;;;;6208787;23;20023;-90
2021/05/15 05:58:51;;;;;;;17.65;11.55;;;9.50;99.90;;;;;;6184131;23;20024;-89
2021/05/15 06:01:17;;;;;;;14.75;11.55;;;9.60;99.90;;;;;;6183986;23;20078;-90
2021/05/15 06:03:43;;;;;;;17.77;10.85;;;9.60;99.90;;;;;;6211090;23;20085;-89
2021/05/15 06:06:10;;;;;;;22.23;10.52;;;9.70;99.90;;;;;;6184763;23;20095;-89
2021/05/15 06:08:39;;;;;;;19.83;11.13;;;9.70;99.90;;;;;;6183223;23;20009;-90
2021/05/15 06:11:05;;;;;;;17.02;10.75;;;9.80;99.90;;;;;;6211093;23;20041;-90
2021/05/15 06:13:32;;;;;;;13.93;10.15;;;9.90;99.90;;;;;;6208281;23;20477;-90
2021/05/15 06:15:58;;;;;;;19.88;10.32;;;9.90;99.90;;;;;;6211155;23;20018;-90
2021/05/15 06:18:24;;;;;;;16.10;9.82;;;9.90;99.90;;;;;;6208457;23;20096;-88
2021/05/15 06:20:50;;;;;;;13.63;10.27;;;10.00;99.90;;;;;;6209472;23;20407;-90
2021/05/15 06:23:16;;;;;;;15.13;10.60;;;10.00;99.90;;;;;;6209204;23;20041;-90
2021/05/15 06:25:42;;;;;;;16.33;11.13;;;10.10;99.90;;;;;;6210222;23;20330;-90
2021/05/15 06:28:09;;;;;;;19.35;10.40;;;10.10;99.90;;;;;;6209378;23;20091;-89
2021/05/15 06:30:35;;;;;;;20.40;10.65;;;10.10;99.90;;;;;;6208291;23;20027;-89
2021/05/15 06:33:01;;;;;;;22.25;10.88;;;10.20;99.90;;;;;;6209110;23;20394;-90
2021/05/15 06:35:27;;;;;;;21.90;12.23;;;10.30;99.90;;;;;;6183779;23;20024;-90
2021/05/15 06:37:53;;;;;;;17.85;12.07;;;10.30;99.90;;;;;;6209255;23;20032;-90
2021/05/15 06:40:19;;;;;;;20.02;10.57;;;10.40;99.90;;;;;;6183784;23;20016;-89
2021/05/15 06:42:45;;;;;;;15.48;9.50;;;10.40;99.90;;;;;;6183863;23;20320;-88
2021/05/15 06:45:11;;;;;;;16.83;10.20;;;10.50;99.90;;;;;;6184522;23;20024;-89
2021/05/15 06:47:37;;;;;;;18.80;9.98;;;10.50;99.90;;;;;;6207967;23;20040;-89
2021/05/15 06:50:05;;;;;;;14.80;10.68;;;10.60;99.90;;;;;;6184237;23;20051;-89
2021/05/15 06:52:31;;;;;;;19.63;10.98;;;10.50;99.90;;;;;;6208707;23;20335;-89
2021/05/15 06:54:57;;;;;;;19.52;12.00;;;10.60;99.90;;;;;;6210817;23;20100;-88
2021/05/15 06:57:23;;;;;;;11.55;9.75;;;10.60;99.90;;;;;;6208135;23;20075;-89
2021/05/15 06:59:49;;;;;;;15.05;10.60;;;10.60;99.90;;;;;;6184410;23;20016;-88
2021/05/15 07:02:15;;;;;;;13.63;10.00;;;10.60;99.90;;;;;;6208865;23;20432;-89
2021/05/15 07:04:40;;;;;;;16.77;10.75;;;10.50;99.90;;;;;;6209876;23;20564;-88
2021/05/15 07:07:06;;;;;;;17.75;10.88;;;10.60;99.90;;;;;;6159053;23;20013;-90
2021/05/15 07:09:32;;;;;;;14.60;10.50;;;10.60;99.90;;;;;;6183509;23;20063;-91
2021/05/15 07:11:58;;;;;;;21.83;11.68;;;10.60;99.90;;;;;;6186966;23;20465;-92
2021/05/15 07:14:24;;;;;;;17.75;11.25;;;10.60;99.90;;;;;;6187144;23;20012;-93
2021/05/15 07:16:50;;;;;;;20.17;11.23;;;10.60;99.90;;;;;;6186724;23;20024;-92
2021/05/15 07:19:16;;;;;;;16.50;10.30;;;10.70;99.90;;;;;;6187072;23;20020;-91
2021/05/15 07:21:45;;;;;;;16.23;11.57;;;10.80;99.90;;;;;;6185198;23;20019;-92
2021/05/15 07:24:14;;;;;;;16.98;11.15;;;10.90;99.90;;;;;;6186436;23;20016;-92
2021/05/15 07:26:41;;;;;;;15.55;10.82;;;11.10;99.90;;;;;;6184278;23;20079;-90
2021/05/15 07:29:07;;;;;;;22.02;11.88;;;11.20;99.90;;;;;;6185005;23;20020;-88
2021/05/15 07:31:33;;;;;;;14.80;10.50;;;11.50;99.90;;;;;;6209056;23;20020;-89
2021/05/15 07:34:01;;;;;;;18.33;11.38;;;11.60;99.90;;;;;;6211893;23;20031;-91
2021/05/15 07:36:27;;;;;;;15.82;11.20;;;11.80;99.90;;;;;;6162201;23;20017;-90
2021/05/15 07:38:52;;;;;;;19.83;11.80;;;11.90;99.90;;;;;;6187192;23;20021;-90
2021/05/15 07:41:18;;;;;;;20.73;11.27;;;11.90;99.90;;;;;;6211077;23;20021;-90
2021/05/15 07:43:44;;;;;;;19.08;11.05;;;12.00;99.90;;;;;;6211869;23;20018;-91
2021/05/15 07:46:11;;;;;;;18.65;11.10;;;12.00;99.90;;;;;;6211483;23;20043;-92
2021/05/15 07:48:43;;;;;;;14.02;10.95;;;12.00;99.90;;;;;;6185463;23;20095;-92
2021/05/15 07:51:22;;;;;;;16.35;11.20;;;12.10;99.90;;;;;;6213203;23;20013;-92
2021/05/15 07:53:52;;;;;;;16.05;11.18;;;12.20;99.90;;;;;;6210804;23;20051;-91
2021/05/15 07:56:18;;;;;;;19.73;11.82;;;12.30;99.90;;;;;;6186524;23;20036;-91
2021/05/15 07:58:44;;;;;;;16.73;11.23;;;12.20;99.90;;;;;;6210280;23;20016;-92
2021/05/15 08:01:10;;;;;;;14.05;11.50;;;12.20;99.90;;;;;;6211478;23;20086;-92
2021/05/15 08:03:36;;;;;;;19.95;10.82;;;12.00;99.90;;;;;;6210533;23;20316;-91
2021/05/15 08:06:02;;;;;;;16.90;11.73;;;11.90;99.90;;;;;;6137523;23;20031;-90
2021/05/15 08:08:28;;;;;;;13.50;10.95;;;11.80;99.90;;;;;;6187083;23;20435;-93
2021/05/15 08:10:59;;;;;;;17.40;11.93;;;11.80;99.90;;;;;;6212285;23;20074;-92
2021/05/15 08:13:25;;;;;;;18.10;12.38;;;11.90;99.90;;;;;;6162814;23;20040;-92
2021/05/15 08:15:51;;;;;;;16.63;11.73;;;11.90;99.90;;;;;;6136997;23;20098;-90
2021/05/15 08:18:18;;;;;;;16.05;10.48;;;12.00;99.90;;;;;;6211763;23;20017;-92
2021/05/15 08:20:46;;;;;;;16.98;11.65;;;12.10;99.90;;;;;;6211380;23;20772;-92
2021/05/15 08:23:12;;;;;;;16.77;11.60;;;12.00;99.90;;;;;;6186513;23;20053;-92
2021/05/15 08:25:38;;;;;;;17.40;11.80;;;12.00;99.90;;;;;;6212421;23;20091;-90
2021/05/15 08:28:10;;;;;;;17.02;11.80;;;11.80;99.90;;;;;;6186389;23;20025;-91
2021/05/15 08:30:36;;;;;;;22.17;12.38;;;11.80;99.90;;;;;;6211199;23;20059;-91
2021/05/15 08:33:02;;;;;;;23.40;13.23;;;11.80;99.90;;;;;;6186826;23;20017;-91
2021/05/15 08:35:28;;;;;;;21.60;12.82;;;11.80;99.90;;;;;;6186745;23;20028;-91
2021/05/15 08:37:54;;;;;;;16.23;12.65;;;11.80;99.90;;;;;;6161311;23;20028;-91
2021/05/15 08:40:22;;;;;;;18.67;11.50;;;11.80;99.90;;;;;;6186771;23;20028;-90
2021/05/15 08:42:48;;;;;;;18.58;12.35;;;11.80;99.90;;;;;;6211111;23;20104;-91
2021/05/15 08:45:16;;;;;;;16.30;11.15;;;11.80;99.90;;;;;;6162081;23;20020;-92
2021/05/15 08:47:44;;;;;;;19.48;13.23;;;11.90;99.90;;;;;;6210512;23;20520;-91
2021/05/15 08:50:13;;;;;;;16.33;11.90;;;11.70;99.90;;;;;;6186409;23;20111;-91
2021/05/15 08:52:41;;;;;;;19.05;12.65;;;11.70;99.90;;;;;;6185837;23;20020;-91
2021/05/15 08:55:20;;;;;;;16.73;11.70;;;11.80;99.90;;;;;;6211696;23;20031;-92
2021/05/15 08:57:46;;;;;;;17.55;12.57;;;11.90;99.90;;;;;;6211448;23;20020;-91
2021/05/15 09:00:23;;;;;;;19.20;12.75;;;12.00;99.90;;;;;;6212104;23;20060;-92
2021/05/15 09:02:58;;;;;;;20.75;12.85;;;12.20;99.90;;;;;;6211017;23;20020;-92
2021/05/15 09:05:26;;;;;;;19.13;12.55;;;12.30;99.90;;;;;;6212970;23;20013;-91
2021/05/15 09:07:54;;;;;;;19.45;11.07;;;12.40;99.90;;;;;;6210686;23;20025;-92
2021/05/15 09:10:23;;;;;;;18.88;12.30;;;12.60;99.90;;;;;;6185383;23;20023;-91
2021/05/15 09:12:49;;;;;;;19.15;13.55;;;12.60;99.90;;;;;;6184432;23;20012;-91
2021/05/15 09:15:15;;;;;;;22.30;12.73;;;12.60;99.90;;;;;;6210532;23;20020;-91
2021/05/15 09:17:48;;;;;;;18.38;12.77;;;12.50;99.90;;;;;;6185877;23;20108;-91
2021/05/15 09:20:33;;;;;;;18.15;13.18;;;12.50;99.90;;;;;;6186234;23;20036;-88
2021/05/15 09:23:12;;;;;;;22.42;13.48;;;12.40;99.90;;;;;;6186299;23;20027;-91
2021/05/15 09:25:38;;;;;;;17.05;12.63;;;12.60;99.90;;;;;;6210681;23;20013;-91
2021/05/15 09:28:05;;;;;;;22.80;14.35;;;12.80;99.90;;;;;;6186613;23;20016;-90
2021/05/15 09:30:32;;;;;;;19.05;13.70;;;12.80;99.90;;;;;;6185357;23;20455;-91
2021/05/15 09:33:12;;;;;;;37.75;15.20;;;12.80;99.90;;;;;;6161292;23;20342;-91
2021/05/15 09:35:38;;;;;;;24.52;14.80;;;12.80;99.90;;;;;;6185604;23;20043;-90
2021/05/15 09:38:04;;;;;;;19.58;13.75;;;12.80;99.90;;;;;;6186187;23;20021;-90
2021/05/15 09:40:30;;;;;;;21.38;13.60;;;12.90;99.90;;;;;;6211456;23;20013;-90
2021/05/15 09:42:58;;;;;;;23.90;14.52;;;13.00;99.90;;;;;;6183919;23;20216;-89
2021/05/15 09:45:35;;;;;;;21.92;12.68;;;13.00;99.90;;;;;;6209348;23;20020;-90
2021/05/15 09:48:07;;;;;;;25.40;13.60;;;13.00;99.90;;;;;;6220150;23;20043;-89
2021/05/15 09:50:37;;;;;;;21.25;14.68;;;13.20;99.90;;;;;;6209356;23;20024;-89
2021/05/15 09:53:07;;;;;;;30.70;14.75;;;13.20;99.90;;;;;;6209947;23;20036;-89
2021/05/15 09:55:33;;;;;;;25.05;15.68;;;13.20;99.90;;;;;;6211130;23;20059;-87
2021/05/15 09:58:02;;;;;;;29.50;16.63;;;13.10;99.90;;;;;;6184156;23;20035;-88
2021/05/15 10:00:39;;;;;;;28.23;18.48;;;13.00;99.90;;;;;;6210104;23;20071;-91
2021/05/15 10:03:05;;;;;;;34.28;18.88;;;13.00;99.90;;;;;;6210235;23;20013;-91
2021/05/15 10:05:31;;;;;;;30.13;18.48;;;13.00;99.90;;;;;;6185313;23;20222;-91
2021/05/15 10:08:07;;;;;;;31.52;19.95;;;13.00;99.90;;;;;;6184367;23;20736;-90
2021/05/15 10:10:33;;;;;;;31.55;19.45;;;13.10;99.90;;;;;;6211657;23;20013;-89
2021/05/15 10:13:00;;;;;;;47.80;28.52;;;13.10;99.90;;;;;;6209416;23;20038;-90
2021/05/15 10:15:26;;;;;;;43.55;27.02;;;13.00;99.90;;;;;;6209998;23;20017;-89
2021/05/15 10:17:52;;;;;;;39.05;21.70;;;12.90;99.90;;;;;;6159430;23;20100;-90
2021/05/15 10:20:20;;;;;;;40.65;23.90;;;13.00;99.90;;;;;;6210600;23;20024;-90
2021/05/15 10:22:46;;;;;;;32.75;21.98;;;13.10;99.90;;;;;;6209143;23;20088;-90
2021/05/15 10:25:14;;;;;;;35.20;22.60;;;13.30;99.90;;;;;;6210202;23;20055;-89
2021/05/15 10:27:41;;;;;;;34.90;22.02;;;13.30;99.90;;;;;;6183996;23;20095;-90
2021/05/15 10:30:16;;;;;;;32.45;21.50;;;13.40;99.90;;;;;;6210099;23;20023;-90
2021/05/15 10:33:01;;;;;;;34.50;22.48;;;13.50;99.90;;;;;;6209110;23;20023;-90
2021/05/15 10:35:42;;;;;;;34.17;21.75;;;13.70;99.90;;;;;;6220366;23;20342;-89
2021/05/15 10:38:13;;;;;;;33.03;22.63;;;13.90;99.90;;;;;;6210302;23;20049;-92
2021/05/15 10:40:50;;;;;;;29.55;20.33;;;14.00;99.90;;;;;;6210025;23;20079;-92
2021/05/15 10:43:33;;;;;;;29.08;20.30;;;14.10;99.90;;;;;;6184855;23;20016;-91
2021/05/15 10:46:12;;;;;;;31.38;22.30;;;14.40;99.90;;;;;;6183708;23;20601;-91
2021/05/15 10:48:38;;;;;;;31.85;21.65;;;14.40;99.90;;;;;;6221782;23;20378;-90
2021/05/15 10:51:04;;;;;;;33.42;22.10;;;14.50;99.90;;;;;;6187135;23;20024;-91
2021/05/15 10:53:32;;;;;;;31.98;20.58;;;14.50;99.90;;;;;;6212227;23;20019;-91
2021/05/15 10:56:04;;;;;;;30.50;21.33;;;14.60;99.90;;;;;;6211398;23;20016;-91
2021/05/15 10:58:41;;;;;;;30.10;21.50;;;14.60;99.90;;;;;;6212013;23;20335;-91
2021/05/15 11:01:28;;;;;;;34.90;20.42;;;14.70;99.90;;;;;;6187094;23;20475;-92
2021/05/15 11:03:55;;;;;;;33.75;22.35;;;14.70;99.90;;;;;;6186070;23;20016;-91
2021/05/15 11:06:28;;;;;;;31.75;21.95;;;14.70;99.90;;;;;;6212695;23;20024;-91
2021/05/15 11:09:07;;;;;;;33.65;22.52;;;14.70;99.90;;;;;;6211674;23;20023;-91
2021/05/15 11:11:41;;;;;;;31.73;22.70;;;14.70;99.90;;;;;;6187607;23;20024;-91
2021/05/15 11:14:30;;;;;;;33.63;22.75;;;14.50;99.90;;;;;;6187749;23;20017;-91
2021/05/15 11:17:19;;;;;;;34.05;23.70;;;14.40;99.90;;;;;;6187071;23;20139;-92
2021/05/15 11:19:51;;;;;;;42.22;23.55;;;14.50;99.90;;;;;;6211982;23;20312;-90
2021/05/15 11:22:18;;;;;;;36.58;22.95;;;14.50;99.90;;;;;;6212475;23;20044;-91
2021/05/15 11:24:53;;;;;;;39.67;25.08;;;14.40;99.90;;;;;;6211235;23;20020;-88
2021/05/15 11:27:19;;;;;;;39.63;24.80;;;14.50;99.90;;;;;;6213407;23;20025;-90
2021/05/15 11:29:47;;;;;;;36.78;22.60;;;14.40;99.90;;;;;;6162128;23;20020;-91
2021/05/15 11:32:15;;;;;;;34.75;24.00;;;14.50;99.90;;;;;;6212217;23;20024;-91
2021/05/15 11:34:42;;;;;;;37.65;24.10;;;14.50;99.90;;;;;;6187491;23;20030;-91
2021/05/15 11:37:11;;;;;;;37.45;23.20;;;14.60;99.90;;;;;;6211636;23;20101;-91
2021/05/15 11:39:38;;;;;;;37.75;23.88;;;14.70;99.90;;;;;;6162788;23;20450;-90
2021/05/15 11:42:12;;;;;;;34.35;23.13;;;15.00;99.90;;;;;;6211325;23;20047;-90
2021/05/15 11:44:41;;;;;;;42.05;23.27;;;15.20;99.90;;;;;;6185103;23;20485;-90
2021/05/15 11:47:11;;;;;;;40.08;23.50;;;15.50;99.90;;;;;;6207883;23;20023;-91
2021/05/15 11:49:38;;;;;;;37.55;22.80;;;15.70;99.90;;;;;;6182504;23;20024;-89
2021/05/15 11:52:09;;;;;;;34.47;22.95;;;15.90;99.90;;;;;;6210254;23;20028;-93
2021/05/15 11:54:36;;;;;;;34.17;22.70;;;16.10;99.90;;;;;;6217362;23;20021;-89
2021/05/15 11:57:03;;;;;;;32.10;21.00;;;16.60;99.90;;;;;;6208201;23;20020;-89
2021/05/15 11:59:30;;;;;;;27.42;20.48;;;17.00;99.90;;;;;;6212197;23;20027;-90
2021/05/15 12:01:57;;;;;;;27.58;19.77;;;17.10;99.90;;;;;;6187211;23;20111;-89
2021/05/15 12:06:58;;;;;;;32.95;21.88;;;17.00;99.90;;;;;;6212793;23;20024;-89
2021/05/15 12:09:26;;;;;;;31.92;21.30;;;16.70;99.90;;;;;;6210600;23;20426;-89
2021/05/15 12:12:06;;;;;;;32.25;21.67;;;16.70;99.90;;;;;;6162518;23;20013;-89
2021/05/15 12:14:33;;;;;;;28.80;20.63;;;16.90;99.90;;;;;;6172803;23;20044;-92
2021/05/15 12:17:28;;;;;;;29.42;20.02;;;16.90;99.90;;;;;;6138609;23;20020;-91
2021/05/15 12:19:55;;;;;;;30.85;20.75;;;16.90;99.90;;;;;;6131375;23;20078;-92
2021/05/15 12:22:25;;;;;;;33.10;22.15;;;17.00;99.90;;;;;;6212478;23;20017;-89
2021/05/15 12:24:54;;;;;;;29.30;20.95;;;17.10;99.90;;;;;;6212128;23;20095;-89
2021/05/15 12:27:22;;;;;;;29.67;20.55;;;17.00;99.90;;;;;;6210429;23;20453;-89
2021/05/15 12:30:09;;;;;;;30.83;22.08;;;17.00;99.90;;;;;;6209024;23;20099;-90
2021/05/15 12:32:36;;;;;;;30.48;21.77;;;17.10;99.90;;;;;;6220029;23;20078;-91
2021/05/15 12:35:06;;;;;;;26.45;20.65;;;17.50;99.90;;;;;;6210482;23;20024;-90
2021/05/15 12:37:34;;;;;;;31.10;20.67;;;17.90;99.90;;;;;;6210144;23;20099;-90
2021/05/15 12:40:09;;;;;;;31.33;21.05;;;18.30;99.90;;;;;;6185011;23;20112;-88
2021/05/15 12:42:37;;;;;;;27.10;20.45;;;18.40;99.90;;;;;;6211055;23;20016;-88
2021/05/15 12:45:18;;;;;;;26.75;18.40;;;18.30;99.90;;;;;;6211801;23;20516;-93
2021/05/15 12:47:48;;;;;;;31.25;20.67;;;18.60;99.90;;;;;;6187249;23;20023;-93